Aviation Digital Data Service (ADDS)

Output produced by METARs form (0257 UTC 22 April 2019)
found at http://www.aviationweather.gov/metar/data/
 
Forecast for: NZQN (QUEENSTOWN , NZ)
Text: TAF NZQN 211706Z 2118/2212 04005KT 9999 SKC
Forecast period: 1800 UTC 21 April 2019 to 1200 UTC 22 April 2019
Forecast type: FROM: standard forecast or significant change
Winds: from the NE (40 degrees) at 6 MPH (5 knots; 2.6 m/s)
Visibility: 6 or more miles 10+ km)
Clouds: clear skies
Weather: no significant weather forecast for this period